Sylvan Beach, Texas
Current Conditions -  °F | °C
As of 8:50 PM on Sunday 21 Dec 2014 (Local Time) from KEFD Reporting Station
Scattered Clouds Scattered Clouds  
Wind Chill: 55°   Ceiling: Unl
Heat Index: 55°   Visibility: 10mi
Dew Point: 52°   Wind: 3mph
Humidity: 88%   Direction: 90°E
Pressure: 29.94"   Gusts: NA
Location:  29.6785°N, 95.0483°W
Report Text: KEFD 220250Z 09003KT 10SM SCT070 13/11 A2994
Loading
Personal Weather Stations






























Interactive Weather Map New forecast layout! Learn more

10-Day Weather Forecast

Advertisements
Track Severe Weather on mobile